Time;durP1;ratioP1;P1;durP2;ratioP2;P2;SDS_P1;SDS_P2;PMS_P1;PMS_P2;Temp;Humidity;BMP_temperature;BMP_pressure;BME280_temperature;BME280_humidity;BME280_pressure;Samples;Min_cycle;Max_cycle;Signal;HPM_P1;HPM_P2
2022/11/08 00:01:57;;;;;;;12.43;7.47;;;6.10;99.90;;;;;;5053414;28;20217;-87
2022/11/08 00:04:23;;;;;;;12.07;7.93;;;6.10;99.90;;;;;;5033403;28;20232;-87
2022/11/08 00:15:05;;;;;;;8.73;6.97;;;5.80;99.90;;;;;;5050137;28;20222;-87
2022/11/08 00:17:31;;;;;;;8.73;6.60;;;5.70;99.90;;;;;;5033297;28;20183;-87
2022/11/08 00:19:57;;;;;;;9.30;6.50;;;5.70;99.90;;;;;;5049832;28;20172;-87
2022/11/08 00:22:23;;;;;;;8.30;6.57;;;5.60;99.90;;;;;;5033020;28;20186;-87
2022/11/08 00:24:50;;;;;;;11.07;6.17;;;5.60;99.90;;;;;;5032186;28;20315;-87
2022/11/08 00:27:19;;;;;;;11.07;7.00;;;5.60;99.90;;;;;;5033104;28;20183;-87
2022/11/08 00:29:45;;;;;;;11.23;6.50;;;5.60;99.90;;;;;;5032780;28;20184;-87
2022/11/08 00:32:17;;;;;;;8.63;6.40;;;5.60;99.90;;;;;;5016662;28;20187;-87
2022/11/08 00:34:43;;;;;;;9.20;6.27;;;5.50;99.90;;;;;;5016270;28;20242;-87
2022/11/08 00:37:10;;;;;;;9.73;6.50;;;5.50;99.90;;;;;;5032640;28;20186;-87
2022/11/08 00:39:36;;;;;;;10.00;7.17;;;5.50;99.90;;;;;;5032722;28;20639;-87
2022/11/08 00:42:02;;;;;;;8.50;6.80;;;5.50;99.90;;;;;;5032818;28;20210;-87
2022/11/08 00:44:28;;;;;;;10.80;7.33;;;5.40;99.90;;;;;;5032517;28;20684;-87
2022/11/08 00:46:54;;;;;;;10.20;7.07;;;5.40;99.90;;;;;;5032315;28;20179;-87
2022/11/08 00:49:20;;;;;;;9.47;6.83;;;5.40;99.90;;;;;;5032587;28;20195;-87
2022/11/08 00:51:46;;;;;;;10.43;6.90;;;5.40;99.90;;;;;;5032393;28;20193;-87
2022/11/08 00:54:15;;;;;;;9.37;6.43;;;5.40;99.90;;;;;;5015793;28;20278;-87
2022/11/08 00:56:42;;;;;;;9.97;6.80;;;5.30;99.90;;;;;;5015566;28;20187;-87
2022/11/08 00:59:11;;;;;;;10.27;6.50;;;5.30;99.90;;;;;;5032271;28;20181;-87
2022/11/08 01:01:38;;;;;;;8.90;6.73;;;5.30;99.90;;;;;;5015837;28;20179;-87
2022/11/08 01:04:04;;;;;;;8.47;6.37;;;5.30;99.90;;;;;;5015542;28;20203;-86
2022/11/08 01:06:30;;;;;;;8.53;6.27;;;5.30;99.90;;;;;;5048262;28;20264;-87
2022/11/08 01:08:56;;;;;;;9.47;7.80;;;5.30;99.90;;;;;;5032388;28;20187;-87
2022/11/08 01:11:24;;;;;;;8.80;6.73;;;5.30;99.90;;;;;;5031541;28;20183;-87
2022/11/08 01:13:57;;;;;;;7.53;6.10;;;5.20;99.90;;;;;;5032265;28;20211;-87
2022/11/08 01:16:25;;;;;;;9.33;5.90;;;5.20;99.90;;;;;;5033354;28;20157;-87
2022/11/08 01:18:53;;;;;;;8.00;6.63;;;5.10;99.90;;;;;;5031992;28;20187;-87
2022/11/08 01:21:20;;;;;;;8.30;6.73;;;5.20;99.90;;;;;;5031883;28;20652;-87
2022/11/08 01:23:46;;;;;;;10.53;7.60;;;5.20;99.90;;;;;;5032113;28;20334;-87
2022/11/08 01:26:15;;;;;;;10.87;7.97;;;5.20;99.90;;;;;;5031827;28;20182;-87
2022/11/08 01:28:41;;;;;;;14.10;7.90;;;5.10;99.90;;;;;;5031589;28;20180;-87
2022/11/08 01:31:13;;;;;;;12.83;8.23;;;5.10;99.90;;;;;;5031773;28;20815;-87
2022/11/08 01:33:39;;;;;;;12.30;8.07;;;5.10;99.90;;;;;;5031978;28;20211;-87
2022/11/08 01:36:10;;;;;;;15.20;8.90;;;5.10;99.90;;;;;;5031598;28;20190;-87
2022/11/08 01:38:36;;;;;;;12.47;8.50;;;5.00;99.90;;;;;;5031932;28;20191;-87
2022/11/08 01:41:03;;;;;;;13.70;8.43;;;5.00;99.90;;;;;;5031943;28;20175;-87
2022/11/08 01:43:29;;;;;;;10.93;7.90;;;4.90;99.90;;;;;;5032305;28;20199;-86
2022/11/08 01:46:17;;;;;;;17.20;8.93;;;4.90;99.90;;;;;;5031080;28;20184;-87
2022/11/08 01:48:56;;;;;;;22.33;8.97;;;4.80;99.90;;;;;;5031633;28;20324;-87
2022/11/08 01:51:29;;;;;;;16.13;8.70;;;4.80;99.90;;;;;;5048251;28;20159;-87
2022/11/08 01:53:58;;;;;;;10.37;6.80;;;4.70;99.90;;;;;;5031680;28;20214;-87
2022/11/08 01:56:24;;;;;;;13.07;7.70;;;4.70;99.90;;;;;;5031459;28;20194;-87
2022/11/08 01:58:54;;;;;;;13.77;7.87;;;4.70;99.90;;;;;;5031068;28;20185;-87
2022/11/08 02:01:19;;;;;;;12.07;8.57;;;4.70;99.90;;;;;;5031459;28;20209;-87
2022/11/08 02:03:46;;;;;;;12.43;7.93;;;4.70;99.90;;;;;;5031614;28;20229;-87
2022/11/08 02:06:12;;;;;;;18.97;9.27;;;4.70;99.90;;;;;;5029792;28;20220;-87
2022/11/08 02:08:41;;;;;;;15.30;8.60;;;4.70;99.90;;;;;;5021601;28;20184;-87
2022/11/08 02:11:10;;;;;;;15.27;8.37;;;4.70;99.90;;;;;;5014954;28;20203;-87
2022/11/08 02:13:37;;;;;;;14.60;8.37;;;4.70;99.90;;;;;;5014852;28;20202;-87
2022/11/08 02:16:10;;;;;;;9.83;7.00;;;4.70;99.90;;;;;;5014784;28;20213;-87
2022/11/08 02:18:36;;;;;;;11.00;7.43;;;4.70;99.90;;;;;;5014836;28;20158;-87
2022/11/08 02:21:26;;;;;;;17.37;9.40;;;4.70;99.90;;;;;;5014770;28;20281;-86
2022/11/08 02:23:55;;;;;;;13.93;8.07;;;4.60;99.90;;;;;;5014663;28;20269;-87
2022/11/08 02:26:30;;;;;;;15.90;8.87;;;4.70;99.90;;;;;;5014843;28;20207;-87
2022/11/08 02:28:56;;;;;;;13.03;8.40;;;4.70;99.90;;;;;;5030985;28;20283;-86
2022/11/08 02:31:22;;;;;;;12.23;7.53;;;4.60;99.90;;;;;;5014613;28;20238;-87
2022/11/08 02:33:48;;;;;;;9.23;6.57;;;4.60;99.90;;;;;;5031166;28;20211;-87
2022/11/08 02:36:21;;;;;;;9.07;6.77;;;4.60;99.90;;;;;;5014573;28;20277;-87
2022/11/08 02:38:54;;;;;;;10.80;7.50;;;4.60;99.90;;;;;;5031428;28;20175;-87
2022/11/08 02:41:20;;;;;;;15.20;7.33;;;4.50;99.90;;;;;;5030960;28;20184;-87
2022/11/08 02:43:46;;;;;;;17.27;7.70;;;4.50;99.90;;;;;;5030065;28;20203;-86
2022/11/08 02:46:11;;;;;;;12.70;6.77;;;4.50;99.90;;;;;;5031325;28;20179;-87
2022/11/08 02:48:37;;;;;;;8.67;5.67;;;4.50;99.90;;;;;;5034737;28;20187;-87
2022/11/08 02:51:03;;;;;;;10.40;7.23;;;4.50;99.90;;;;;;5035137;28;20196;-87
2022/11/08 02:53:29;;;;;;;11.53;7.03;;;4.50;99.90;;;;;;5034619;28;20195;-87
2022/11/08 02:55:55;;;;;;;9.47;6.73;;;4.50;99.90;;;;;;5034872;28;20173;-86
2022/11/08 02:58:21;;;;;;;10.90;6.90;;;4.50;99.90;;;;;;5018108;28;20184;-86
2022/11/08 03:00:47;;;;;;;10.97;6.70;;;4.40;99.90;;;;;;5018380;28;20253;-86
2022/11/08 03:03:12;;;;;;;9.87;6.03;;;4.40;99.90;;;;;;5034406;28;20232;-87
2022/11/08 03:05:38;;;;;;;9.13;6.80;;;4.30;99.90;;;;;;5017927;28;20247;-87
2022/11/08 03:08:04;;;;;;;12.50;6.90;;;4.30;99.90;;;;;;5017767;28;20274;-87
2022/11/08 03:10:30;;;;;;;8.27;6.33;;;4.30;99.90;;;;;;5018209;28;20183;-87
2022/11/08 03:12:57;;;;;;;9.03;6.67;;;4.30;99.90;;;;;;5017904;28;20179;-87
2022/11/08 03:15:24;;;;;;;17.73;7.90;;;4.20;99.90;;;;;;5017843;28;20210;-87
2022/11/08 03:17:50;;;;;;;10.03;6.50;;;4.20;99.90;;;;;;5017964;28;20184;-87
2022/11/08 03:20:17;;;;;;;7.80;6.23;;;4.20;99.90;;;;;;5034191;28;20186;-87
2022/11/08 03:22:45;;;;;;;11.70;6.43;;;4.20;99.90;;;;;;5034006;28;20186;-86
2022/11/08 03:25:11;;;;;;;9.80;6.23;;;4.20;99.90;;;;;;5017622;28;20287;-87
2022/11/08 03:27:36;;;;;;;15.33;6.23;;;4.20;99.90;;;;;;5017198;28;20227;-86
2022/11/08 03:30:03;;;;;;;7.03;5.53;;;4.10;99.90;;;;;;5016735;28;20232;-86
2022/11/08 03:32:29;;;;;;;14.40;6.00;;;4.00;99.90;;;;;;5032795;28;20186;-86
2022/11/08 03:34:55;;;;;;;8.63;6.43;;;3.90;99.90;;;;;;5016416;28;20211;-86
2022/11/08 03:37:22;;;;;;;8.30;6.47;;;4.00;99.90;;;;;;5033999;28;20175;-87
2022/11/08 03:39:47;;;;;;;26.30;7.50;;;4.10;99.90;;;;;;5017705;28;20171;-87
2022/11/08 03:42:13;;;;;;;12.90;6.90;;;4.10;99.90;;;;;;5017730;28;20175;-87
2022/11/08 03:44:39;;;;;;;37.77;8.03;;;4.10;99.90;;;;;;5017243;28;20210;-87
2022/11/08 03:47:05;;;;;;;40.00;7.47;;;4.20;99.90;;;;;;5016852;28;20180;-87
2022/11/08 03:49:31;;;;;;;13.30;6.97;;;4.10;99.90;;;;;;5017159;28;20182;-87
2022/11/08 03:51:56;;;;;;;34.73;7.80;;;4.10;99.90;;;;;;5017194;28;20194;-86
2022/11/08 03:54:22;;;;;;;16.27;7.27;;;4.00;99.90;;;;;;5017017;28;20214;-87
2022/11/08 03:56:48;;;;;;;14.77;6.20;;;4.00;99.90;;;;;;5017003;28;20190;-86
2022/11/08 03:59:14;;;;;;;15.10;6.90;;;4.00;99.90;;;;;;5017026;28;20175;-86
2022/11/08 04:01:40;;;;;;;14.13;6.73;;;4.00;99.90;;;;;;5017026;28;20212;-86
2022/11/08 04:04:07;;;;;;;8.20;5.77;;;4.10;99.90;;;;;;5032677;28;20246;-86
2022/11/08 04:06:33;;;;;;;11.37;6.07;;;4.10;99.90;;;;;;5032991;28;20210;-86
2022/11/08 04:08:59;;;;;;;10.57;6.13;;;4.00;99.90;;;;;;5016713;28;20221;-86
2022/11/08 04:16:56;;;;;;;7.87;5.40;;;4.10;99.90;;;;;;5032823;28;20171;-86
2022/11/08 04:22:10;;;;;;;14.00;7.00;;;4.10;99.90;;;;;;5032505;28;20271;-87
2022/11/08 04:24:36;;;;;;;6.70;5.97;;;4.10;99.90;;;;;;5016371;28;20211;-87
2022/11/08 04:27:02;;;;;;;9.17;5.73;;;4.00;99.90;;;;;;5015996;28;20209;-87
2022/11/08 04:29:29;;;;;;;6.37;5.50;;;4.00;99.90;;;;;;5016536;28;20182;-87
2022/11/08 04:31:55;;;;;;;8.93;6.00;;;4.00;99.90;;;;;;5016334;28;20202;-86
2022/11/08 04:34:21;;;;;;;7.97;5.90;;;3.90;99.90;;;;;;5016482;28;20215;-86
2022/11/08 04:36:47;;;;;;;5.73;5.13;;;3.90;99.90;;;;;;5032549;28;20205;-86
2022/11/08 04:39:13;;;;;;;6.00;5.37;;;3.90;99.90;;;;;;5013632;28;20989;-87
2022/11/08 04:41:57;;;;;;;7.30;5.50;;;3.90;99.90;;;;;;5033113;28;20191;-87
2022/11/08 04:44:27;;;;;;;5.80;5.20;;;3.90;99.90;;;;;;5016508;28;20194;-87
2022/11/08 04:46:55;;;;;;;9.50;5.50;;;3.90;99.90;;;;;;5034166;28;20193;-87
2022/11/08 04:49:23;;;;;;;9.87;6.40;;;3.90;99.90;;;;;;5033717;28;20549;-87
2022/11/08 04:52:06;;;;;;;13.03;7.20;;;4.00;99.90;;;;;;5018701;28;20178;-87
2022/11/08 04:54:44;;;;;;;13.07;6.97;;;4.00;99.90;;;;;;5019656;28;20301;-87
2022/11/08 04:57:10;;;;;;;13.10;7.20;;;4.10;99.90;;;;;;5017205;28;20198;-88
2022/11/08 04:59:36;;;;;;;22.97;7.37;;;4.00;99.90;;;;;;5032240;28;20345;-87
2022/11/08 05:02:02;;;;;;;9.30;7.10;;;4.00;99.90;;;;;;5015685;28;20297;-87
2022/11/08 05:04:28;;;;;;;11.90;6.03;;;4.00;99.90;;;;;;5031929;28;20214;-88
2022/11/08 05:06:54;;;;;;;15.10;7.43;;;4.00;99.90;;;;;;5032010;28;20185;-87
2022/11/08 05:09:20;;;;;;;15.97;6.50;;;3.90;99.90;;;;;;5031921;28;20723;-87
2022/11/08 05:11:46;;;;;;;17.97;7.20;;;3.90;99.90;;;;;;5032521;28;20178;-87
2022/11/08 05:14:12;;;;;;;9.10;6.00;;;3.80;99.90;;;;;;5031939;28;20210;-87
2022/11/08 05:16:38;;;;;;;11.60;6.67;;;3.80;99.90;;;;;;5032169;28;20179;-87
2022/11/08 05:19:04;;;;;;;26.50;7.57;;;3.80;99.90;;;;;;5048592;28;20210;-88
2022/11/08 05:24:16;;;;;;;13.83;6.10;;;3.70;99.90;;;;;;5048426;28;20210;-87
2022/11/08 05:26:45;;;;;;;17.33;6.47;;;3.80;99.90;;;;;;5032480;28;20207;-87
2022/11/08 05:29:13;;;;;;;18.13;12.03;;;3.70;99.90;;;;;;5031986;28;20179;-87
2022/11/08 05:31:39;;;;;;;8.97;7.63;;;3.70;99.90;;;;;;5032049;28;20186;-87
2022/11/08 05:34:06;;;;;;;9.63;7.17;;;3.70;99.90;;;;;;5031810;28;20234;-87
2022/11/08 05:36:32;;;;;;;8.47;7.00;;;3.70;99.90;;;;;;5030580;28;20181;-87
2022/11/08 05:38:58;;;;;;;10.33;7.53;;;3.60;99.90;;;;;;5031407;28;20232;-87
2022/11/08 05:41:25;;;;;;;7.87;6.37;;;3.70;99.90;;;;;;5031644;28;20289;-88
2022/11/08 05:43:53;;;;;;;8.70;6.47;;;3.70;99.90;;;;;;5042415;28;20194;-88
2022/11/08 05:46:20;;;;;;;8.93;6.03;;;3.70;99.90;;;;;;5015170;28;20183;-87
2022/11/08 05:48:47;;;;;;;7.70;5.40;;;3.50;99.90;;;;;;5015244;28;20178;-88
2022/11/08 05:51:15;;;;;;;7.50;5.50;;;3.50;99.90;;;;;;5015132;28;20228;-87
2022/11/08 05:53:41;;;;;;;7.57;5.50;;;3.50;99.90;;;;;;5015353;28;20253;-87
2022/11/08 05:56:07;;;;;;;41.47;28.07;;;3.40;99.90;;;;;;5015742;28;20174;-87
2022/11/08 05:58:35;;;;;;;17.03;12.10;;;3.50;99.90;;;;;;5015633;28;20175;-87
2022/11/08 06:01:02;;;;;;;7.90;5.90;;;3.50;99.90;;;;;;5015146;28;20183;-87
2022/11/08 06:03:28;;;;;;;6.20;5.20;;;3.40;99.90;;;;;;5015891;28;20198;-89
2022/11/08 06:05:55;;;;;;;6.50;5.03;;;3.40;99.90;;;;;;5016303;28;20193;-88
2022/11/08 06:08:21;;;;;;;7.20;4.73;;;3.30;99.90;;;;;;5022542;28;20182;-88
2022/11/08 06:10:47;;;;;;;5.73;4.97;;;3.30;99.90;;;;;;5044151;28;20178;-88
2022/11/08 06:13:13;;;;;;;5.67;4.93;;;3.20;99.90;;;;;;5017518;28;20196;-89
2022/11/08 06:15:39;;;;;;;17.37;5.60;;;3.20;99.90;;;;;;5014913;28;20229;-89
2022/11/08 06:18:04;;;;;;;5.93;5.10;;;3.20;99.90;;;;;;5011937;28;20246;-89
2022/11/08 06:20:53;;;;;;;5.83;5.20;;;3.10;99.90;;;;;;5015254;28;20278;-89
2022/11/08 06:23:19;;;;;;;7.73;5.10;;;3.10;99.90;;;;;;5034737;28;20217;-89
2022/11/08 06:25:46;;;;;;;10.17;4.97;;;3.20;99.90;;;;;;5015735;28;20171;-89
2022/11/08 06:28:13;;;;;;;8.27;5.37;;;3.10;99.90;;;;;;5020011;28;20635;-89
2022/11/08 06:30:39;;;;;;;7.30;5.53;;;3.00;99.90;;;;;;4999095;28;20190;-89
2022/11/08 06:33:05;;;;;;;8.37;6.17;;;3.00;99.90;;;;;;5022768;28;20181;-87
2022/11/08 06:35:31;;;;;;;6.13;5.43;;;3.00;99.90;;;;;;5025617;28;20214;-87
2022/11/08 06:37:57;;;;;;;16.07;5.53;;;3.10;99.90;;;;;;5035182;28;20213;-88
2022/11/08 06:40:22;;;;;;;5.80;5.10;;;3.10;99.90;;;;;;5036689;28;20269;-88
2022/11/08 06:42:48;;;;;;;5.73;4.60;;;3.10;99.90;;;;;;5035046;28;20261;-87
2022/11/08 06:45:15;;;;;;;8.90;5.23;;;3.10;99.90;;;;;;5018855;28;20203;-87
2022/11/08 06:47:40;;;;;;;11.70;5.67;;;3.10;99.90;;;;;;5017950;28;20183;-87
2022/11/08 06:50:07;;;;;;;8.37;5.83;;;3.20;99.90;;;;;;5018439;28;20273;-87
2022/11/08 06:52:32;;;;;;;7.27;5.87;;;3.20;99.90;;;;;;5018320;28;20249;-87
2022/11/08 06:54:58;;;;;;;9.07;6.63;;;3.30;99.90;;;;;;5018023;28;20305;-86
2022/11/08 06:57:24;;;;;;;7.07;6.20;;;3.40;99.90;;;;;;5018152;28;20187;-87
2022/11/08 06:59:50;;;;;;;8.03;5.97;;;3.40;99.90;;;;;;5018094;28;20540;-87
2022/11/08 07:02:16;;;;;;;6.33;5.67;;;3.50;99.90;;;;;;5018565;28;20175;-87
2022/11/08 07:04:42;;;;;;;6.77;5.93;;;3.50;99.90;;;;;;5034582;28;20290;-87
2022/11/08 07:07:08;;;;;;;6.50;5.53;;;3.60;99.90;;;;;;5034376;28;20233;-87
2022/11/08 07:09:33;;;;;;;5.27;4.50;;;3.60;99.90;;;;;;5034604;28;20174;-87
2022/11/08 07:11:59;;;;;;;7.97;6.67;;;3.60;99.90;;;;;;5034531;28;20193;-87
2022/11/08 07:14:25;;;;;;;7.90;7.10;;;3.60;99.90;;;;;;5050927;28;20253;-87
2022/11/08 07:16:51;;;;;;;9.80;8.57;;;3.70;99.90;;;;;;5033525;28;20224;-87
2022/11/08 07:19:17;;;;;;;11.90;10.70;;;3.80;99.90;;;;;;5004499;28;20182;-84
2022/11/08 07:21:43;;;;;;;13.87;9.47;;;3.90;99.90;;;;;;5002197;28;20187;-78
2022/11/08 07:24:09;;;;;;;8.20;7.23;;;4.00;99.90;;;;;;5006130;28;20238;-78
2022/11/08 07:26:35;;;;;;;9.20;5.60;;;4.10;99.90;;;;;;4998940;28;20179;-78
2022/11/08 07:29:01;;;;;;;8.27;6.60;;;4.10;99.90;;;;;;5001742;28;20183;-77
2022/11/08 07:31:27;;;;;;;8.50;6.30;;;4.20;99.90;;;;;;5027504;28;20214;-78
2022/11/08 07:33:53;;;;;;;7.33;6.30;;;4.30;99.90;;;;;;5030260;28;20195;-77
2022/11/08 07:36:19;;;;;;;6.80;6.03;;;4.30;99.90;;;;;;5033360;28;20250;-77
2022/11/08 07:38:44;;;;;;;6.90;5.50;;;4.30;99.90;;;;;;5034000;28;20184;-87
2022/11/08 07:41:11;;;;;;;6.03;5.43;;;4.40;99.90;;;;;;5034129;28;20182;-87
2022/11/08 07:43:39;;;;;;;5.40;4.90;;;4.40;99.90;;;;;;5034017;28;20434;-87
2022/11/08 07:46:15;;;;;;;6.07;4.93;;;4.40;99.90;;;;;;5034140;28;20265;-87
2022/11/08 07:48:42;;;;;;;4.90;4.33;;;4.40;99.90;;;;;;5034068;28;20233;-87
2022/11/08 07:51:09;;;;;;;5.67;5.07;;;4.40;99.90;;;;;;5015663;28;20229;-87
2022/11/08 07:53:38;;;;;;;5.70;4.83;;;4.30;99.90;;;;;;5013976;28;20205;-87
2022/11/08 07:56:04;;;;;;;6.20;5.27;;;4.30;99.90;;;;;;5018195;28;20204;-88
2022/11/08 07:58:30;;;;;;;7.47;5.60;;;4.30;99.90;;;;;;5015277;28;20273;-87
2022/11/08 08:01:01;;;;;;;7.40;6.20;;;4.30;99.90;;;;;;5017076;28;20175;-87
2022/11/08 08:03:27;;;;;;;8.90;6.70;;;4.40;99.90;;;;;;5033756;28;20191;-87
2022/11/08 08:05:53;;;;;;;10.07;7.40;;;4.50;99.90;;;;;;5017212;28;20297;-86
2022/11/08 08:08:19;;;;;;;7.63;6.80;;;4.70;99.90;;;;;;5016879;28;20193;-87
2022/11/08 08:10:45;;;;;;;8.00;6.90;;;4.90;99.90;;;;;;5016834;28;20203;-87
2022/11/08 08:13:11;;;;;;;10.43;7.63;;;5.00;99.90;;;;;;5016779;28;20249;-87
2022/11/08 08:15:37;;;;;;;7.80;7.00;;;5.10;99.90;;;;;;5033332;28;20208;-87
2022/11/08 08:18:05;;;;;;;8.00;7.20;;;5.30;99.90;;;;;;5032836;28;20179;-87
2022/11/08 08:20:32;;;;;;;8.03;6.87;;;5.50;99.90;;;;;;5016590;28;20179;-87
2022/11/08 08:22:59;;;;;;;7.67;6.70;;;5.70;99.90;;;;;;5033536;28;20271;-87
2022/11/08 08:25:26;;;;;;;7.97;7.10;;;5.80;99.90;;;;;;5017043;28;20195;-87
2022/11/08 08:27:54;;;;;;;7.23;6.50;;;6.00;99.90;;;;;;5016523;28;20185;-87
2022/11/08 08:30:22;;;;;;;9.57;6.43;;;6.10;99.90;;;;;;5017096;28;20187;-87
2022/11/08 08:32:48;;;;;;;8.63;6.80;;;6.20;99.90;;;;;;5016985;28;20185;-87
2022/11/08 08:35:14;;;;;;;8.43;6.60;;;6.30;99.90;;;;;;5016708;28;20224;-87
2022/11/08 08:37:40;;;;;;;7.93;7.13;;;6.50;99.90;;;;;;5032940;28;20180;-87
2022/11/08 08:40:07;;;;;;;7.40;6.20;;;6.60;99.90;;;;;;5033003;28;20613;-87
2022/11/08 08:42:33;;;;;;;9.40;6.33;;;6.70;99.90;;;;;;5034406;28;20185;-87
2022/11/08 08:45:00;;;;;;;7.97;6.37;;;6.70;99.90;;;;;;5032364;28;20336;-85
2022/11/08 08:47:26;;;;;;;7.87;6.33;;;6.70;99.90;;;;;;5017369;28;20192;-84
2022/11/08 08:49:52;;;;;;;10.27;7.27;;;6.80;99.90;;;;;;5016921;28;20209;-84
2022/11/08 08:52:18;;;;;;;10.17;7.47;;;6.80;99.90;;;;;;5016672;28;20212;-84
2022/11/08 08:54:44;;;;;;;13.03;7.70;;;6.90;99.90;;;;;;5012836;28;20206;-87
2022/11/08 08:57:10;;;;;;;13.13;7.10;;;7.00;99.90;;;;;;5012765;28;20240;-87
2022/11/08 08:59:35;;;;;;;12.20;7.37;;;7.00;99.90;;;;;;5013092;28;20254;-87
2022/11/08 09:02:01;;;;;;;13.70;8.70;;;7.10;99.90;;;;;;5013084;28;20654;-87
2022/11/08 09:04:27;;;;;;;13.07;7.70;;;7.20;99.90;;;;;;5016154;28;20215;-87
2022/11/08 09:06:53;;;;;;;10.30;6.70;;;7.30;99.90;;;;;;5032555;28;20248;-87
2022/11/08 09:09:20;;;;;;;11.83;7.23;;;7.30;99.90;;;;;;5033018;28;20208;-87
2022/11/08 09:11:47;;;;;;;7.97;6.90;;;7.40;99.90;;;;;;5016070;28;20192;-87
2022/11/08 09:14:13;;;;;;;6.80;5.93;;;7.50;99.90;;;;;;5015952;28;20214;-87
2022/11/08 09:16:39;;;;;;;7.83;6.20;;;7.50;99.90;;;;;;5032391;28;20185;-86
2022/11/08 09:19:05;;;;;;;8.03;5.87;;;7.70;99.90;;;;;;5032586;28;20182;-87
2022/11/08 09:21:30;;;;;;;9.13;5.60;;;7.80;99.90;;;;;;5015830;28;20182;-87
2022/11/08 09:23:56;;;;;;;6.40;5.23;;;8.00;99.90;;;;;;5016033;28;20214;-87
2022/11/08 09:26:22;;;;;;;6.23;5.10;;;8.30;99.90;;;;;;5015669;28;20178;-87
2022/11/08 09:28:48;;;;;;;8.40;6.47;;;8.50;99.90;;;;;;5032130;28;20179;-84
2022/11/08 09:31:14;;;;;;;8.43;6.40;;;8.60;99.90;;;;;;5016695;28;20225;-83
2022/11/08 09:33:40;;;;;;;7.80;6.47;;;8.60;99.90;;;;;;5018747;28;20198;-85
2022/11/08 09:36:10;;;;;;;8.20;6.97;;;8.70;99.90;;;;;;5018632;28;20222;-82
2022/11/08 09:38:36;;;;;;;9.93;7.67;;;8.80;99.90;;;;;;5033568;28;20178;-80
2022/11/08 09:41:23;;;;;;;7.67;6.83;;;8.90;99.90;;;;;;5033617;28;20177;-81
2022/11/08 09:44:17;;;;;;;8.10;6.10;;;9.00;99.90;;;;;;5032911;28;20199;-82
2022/11/08 09:46:54;;;;;;;7.27;6.00;;;9.00;99.90;;;;;;5034127;28;20182;-84
2022/11/08 09:49:40;;;;;;;7.53;6.60;;;9.10;99.90;;;;;;5034001;28;20186;-83
2022/11/08 09:52:08;;;;;;;6.53;5.70;;;9.20;99.90;;;;;;5018322;28;20178;-84
2022/11/08 09:54:42;;;;;;;7.97;5.40;;;9.20;99.90;;;;;;5017029;28;20214;-83
2022/11/08 09:57:35;;;;;;;6.47;4.97;;;9.30;99.90;;;;;;5017666;28;20261;-83
2022/11/08 10:00:04;;;;;;;5.33;4.83;;;9.50;99.90;;;;;;4998281;28;20190;-82
2022/11/08 10:02:32;;;;;;;4.67;4.13;;;9.70;99.90;;;;;;5031705;28;20176;-84
2022/11/08 10:05:03;;;;;;;5.23;4.33;;;9.80;99.90;;;;;;5016696;28;20203;-84
2022/11/08 10:07:59;;;;;;;4.90;4.40;;;9.90;99.90;;;;;;5035705;28;20202;-85
2022/11/08 10:10:54;;;;;;;6.00;4.30;;;10.00;99.90;;;;;;5032150;28;20178;-86
2022/11/08 10:13:32;;;;;;;7.43;5.00;;;10.10;99.90;;;;;;5042226;28;20210;-85
2022/11/08 10:16:24;;;;;;;5.47;4.37;;;10.20;99.90;;;;;;5014790;28;20198;-86
2022/11/08 10:19:00;;;;;;;7.00;4.43;;;10.20;99.90;;;;;;5014581;28;20185;-86
2022/11/08 10:21:49;;;;;;;4.93;4.33;;;10.30;99.90;;;;;;5014887;28;20182;-85
2022/11/08 10:24:47;;;;;;;5.20;4.43;;;10.30;99.90;;;;;;5031075;28;20215;-86
2022/11/08 10:27:20;;;;;;;5.63;4.77;;;10.30;99.90;;;;;;5014427;28;20258;-86
2022/11/08 10:29:52;;;;;;;5.97;4.87;;;10.30;99.90;;;;;;5015321;28;20211;-85
2022/11/08 10:32:23;;;;;;;4.97;4.47;;;10.40;99.90;;;;;;5014747;28;20182;-85
2022/11/08 10:35:23;;;;;;;5.30;4.80;;;10.40;99.90;;;;;;5014205;28;20220;-86
2022/11/08 10:37:55;;;;;;;6.43;4.97;;;10.40;99.90;;;;;;5014125;28;20193;-86
2022/11/08 10:40:34;;;;;;;5.37;4.60;;;10.40;99.90;;;;;;5030977;28;20182;-85
2022/11/08 10:43:07;;;;;;;10.27;4.73;;;10.30;99.90;;;;;;5014076;28;20190;-85
2022/11/08 10:45:45;;;;;;;7.20;4.53;;;10.30;99.90;;;;;;5030814;28;20174;-85
2022/11/08 10:48:37;;;;;;;5.53;3.87;;;10.40;99.90;;;;;;5014867;28;20173;-85
2022/11/08 10:51:03;;;;;;;8.03;3.93;;;10.40;99.90;;;;;;5014403;28;20258;-85
2022/11/08 10:53:49;;;;;;;5.73;3.90;;;10.50;99.90;;;;;;5011118;28;20263;-85
2022/11/08 10:56:18;;;;;;;6.53;4.30;;;10.60;99.90;;;;;;5011304;28;20196;-85
2022/11/08 10:58:44;;;;;;;4.93;4.20;;;10.70;99.90;;;;;;5011092;28;20180;-85
2022/11/08 11:01:26;;;;;;;4.43;4.00;;;10.80;99.90;;;;;;5013747;28;20187;-85
2022/11/08 11:03:52;;;;;;;5.77;4.10;;;10.90;99.90;;;;;;5027543;28;20200;-85
2022/11/08 11:06:39;;;;;;;4.80;4.07;;;11.00;99.90;;;;;;5030081;28;20201;-85
2022/11/08 11:09:20;;;;;;;6.60;4.37;;;11.20;99.90;;;;;;5033967;28;20191;-85
2022/11/08 11:11:58;;;;;;;7.07;4.33;;;11.40;99.90;;;;;;5034642;28;20179;-85
2022/11/08 11:14:25;;;;;;;4.27;3.83;;;11.60;99.90;;;;;;5034121;28;20245;-85
2022/11/08 11:16:59;;;;;;;6.90;3.87;;;11.90;99.90;;;;;;5034200;28;20178;-85
2022/11/08 11:19:27;;;;;;;6.17;4.47;;;12.10;99.90;;;;;;5036594;28;20234;-85
2022/11/08 11:22:10;;;;;;;5.30;3.70;;;12.30;99.90;;;;;;5008937;28;20265;-85
2022/11/08 11:24:54;;;;;;;5.83;4.13;;;12.60;99.90;;;;;;5019547;28;20302;-86
2022/11/08 11:28:02;;;;;;;4.77;3.87;;;12.80;99.90;;;;;;5025803;28;20182;-85
2022/11/08 11:30:34;;;;;;;5.27;3.60;;;13.00;99.90;;;;;;4998553;28;20194;-85
2022/11/08 11:33:24;;;;;;;4.90;4.40;;;13.20;99.90;;;;;;4998516;28;20270;-85
2022/11/08 11:35:57;;;;;;;12.40;5.63;;;13.40;99.90;;;;;;5027104;28;20229;-85
2022/11/08 11:38:35;;;;;;;9.57;5.50;;;13.60;99.90;;;;;;5017696;28;20178;-86
2022/11/08 11:41:08;;;;;;;7.80;4.93;;;13.70;99.90;;;;;;5017699;28;20195;-86
2022/11/08 11:44:02;;;;;;;9.50;4.90;;;13.90;99.90;;;;;;5018202;28;20206;-86
2022/11/08 11:46:39;;;;;;;5.47;4.60;;;14.00;99.90;;;;;;5017716;28;20254;-86
2022/11/08 11:49:12;;;;;;;7.00;4.30;;;14.10;99.90;;;;;;5017511;28;20253;-86
2022/11/08 11:51:38;;;;;;;6.63;4.33;;;14.30;99.90;;;;;;5017267;28;20258;-86
2022/11/08 11:54:06;;;;;;;8.10;4.63;;;14.50;99.90;;;;;;5017528;28;20302;-86
2022/11/08 11:57:08;;;;;;;4.80;3.87;;;14.60;99.90;;;;;;5017632;28;20217;-86
2022/11/08 11:59:49;;;;;;;8.53;4.40;;;14.70;99.90;;;;;;5046073;28;20182;-86
2022/11/08 12:02:44;;;;;;;5.40;4.30;;;14.80;99.90;;;;;;5017742;28;20174;-86
2022/11/08 12:05:46;;;;;;;6.20;3.77;;;14.90;99.90;;;;;;5018596;28;20222;-86
2022/11/08 12:08:30;;;;;;;6.10;3.87;;;15.10;99.90;;;;;;5027352;28;20185;-86
2022/11/08 12:11:05;;;;;;;6.10;3.80;;;15.30;99.90;;;;;;5014306;28;20179;-86
2022/11/08 12:14:02;;;;;;;4.83;3.50;;;15.40;99.90;;;;;;5015880;28;20210;-86
2022/11/08 12:16:59;;;;;;;7.40;3.50;;;15.50;99.90;;;;;;5007797;28;20184;-86
2022/11/08 12:19:49;;;;;;;5.33;3.73;;;15.70;99.90;;;;;;5015898;28;20194;-86
2022/11/08 12:22:34;;;;;;;7.37;3.70;;;15.80;99.90;;;;;;5016975;28;20175;-86
2022/11/08 12:25:26;;;;;;;6.00;3.77;;;16.00;99.90;;;;;;5033416;28;20207;-86
2022/11/08 12:27:54;;;;;;;6.27;4.10;;;16.10;99.90;;;;;;5016527;28;20217;-86
2022/11/08 12:30:35;;;;;;;8.33;3.80;;;16.30;99.90;;;;;;5033641;28;20175;-86
2022/11/08 12:33:19;;;;;;;5.57;3.60;;;16.40;99.90;;;;;;5017013;28;20175;-87
2022/11/08 12:36:02;;;;;;;5.00;3.20;;;16.50;99.90;;;;;;5016949;28;20236;-86
2022/11/08 12:39:15;;;;;;;4.67;3.10;;;16.60;99.90;;;;;;5033030;28;20178;-86
2022/11/08 12:41:57;;;;;;;5.53;3.23;;;16.60;99.90;;;;;;5016498;28;20170;-86
2022/11/08 12:44:44;;;;;;;6.30;3.20;;;16.70;99.90;;;;;;5016441;28;20205;-86
2022/11/08 12:47:29;;;;;;;7.90;3.40;;;16.80;99.90;;;;;;5021424;28;20174;-86
2022/11/08 12:50:23;;;;;;;4.28;3.35;;;16.90;99.90;;;;;;5028359;28;20312;-86
2022/11/08 12:53:22;;;;;;;3.97;2.63;;;16.90;99.90;;;;;;5012873;28;20171;-87
2022/11/08 12:55:51;;;;;;;8.10;2.83;;;17.00;99.90;;;;;;5001435;28;20195;-86
2022/11/08 12:58:34;;;;;;;3.72;2.78;;;17.10;99.90;;;;;;5007715;28;20223;-86
2022/11/08 13:01:14;;;;;;;5.30;2.63;;;17.30;99.90;;;;;;5007281;28;20163;-78
2022/11/08 13:03:56;;;;;;;2.95;2.20;;;17.40;99.90;;;;;;5023259;28;20198;-77
2022/11/08 13:06:33;;;;;;;4.70;2.50;;;17.50;99.90;;;;;;5024388;28;20174;-78
2022/11/08 13:09:20;;;;;;;3.55;2.15;;;17.40;99.90;;;;;;5030260;28;20186;-82
2022/11/08 13:12:24;;;;;;;6.72;2.42;;;17.30;99.90;;;;;;5014675;28;20171;-82
2022/11/08 13:14:52;;;;;;;3.08;2.40;;;17.20;99.90;;;;;;4999246;28;20292;-84
2022/11/08 13:17:23;;;;;;;3.15;2.10;;;16.90;99.90;;;;;;5023401;28;20179;-78
2022/11/08 13:19:52;;;;;;;6.05;2.80;;;16.70;99.90;;;;;;5033674;28;20238;-78
2022/11/08 13:22:31;;;;;;;5.07;2.67;;;16.50;99.90;;;;;;5025552;28;20202;-80
2022/11/08 13:25:12;;;;;;;3.30;2.15;;;16.40;99.90;;;;;;5024839;28;20214;-80
2022/11/08 13:27:43;;;;;;;3.30;2.25;;;16.30;99.90;;;;;;5001920;28;20182;-80
2022/11/08 13:30:29;;;;;;;3.22;2.03;;;16.10;99.90;;;;;;5006249;28;20190;-80